createdAt,value
2022-09-30T00:01:42.639Z,10.10
2022-09-30T00:04:20.010Z,9.30
2022-09-30T00:06:47.880Z,9.90
2022-09-30T00:09:15.551Z,9.90
2022-09-30T00:11:43.347Z,9.90
2022-09-30T00:14:21.612Z,10.20
2022-09-30T00:16:49.135Z,9.90
2022-09-30T00:19:16.218Z,9.90
2022-09-30T00:21:43.380Z,10.00
2022-09-30T00:24:10.499Z,10.30
2022-09-30T00:26:37.512Z,9.40
2022-09-30T00:29:06.068Z,10.00
2022-09-30T00:31:35.468Z,10.00
2022-09-30T00:34:09.433Z,9.80
2022-09-30T00:36:43.878Z,10.00
2022-09-30T00:39:16.315Z,9.80
2022-09-30T00:41:44.435Z,11.10
2022-09-30T00:44:54.601Z,9.30
2022-09-30T00:47:55.300Z,9.80
2022-09-30T00:50:38.112Z,10.00
2022-09-30T00:53:26.558Z,9.90
2022-09-30T00:56:12.249Z,10.10
2022-09-30T00:58:53.195Z,9.80
2022-09-30T01:01:22.317Z,9.90
2022-09-30T01:04:02.636Z,10.10
2022-09-30T01:06:29.809Z,9.80
2022-09-30T01:08:58.535Z,9.70
2022-09-30T01:11:28.014Z,9.70
2022-09-30T01:14:00.499Z,9.90
2022-09-30T01:17:07.116Z,9.70
2022-09-30T01:20:06.558Z,9.80
2022-09-30T01:23:10.175Z,9.60
2022-09-30T01:26:07.146Z,9.70
2022-09-30T01:29:26.177Z,9.60
2022-09-30T01:31:56.687Z,9.60
2022-09-30T01:34:46.417Z,9.60
2022-09-30T01:37:38.630Z,9.40
2022-09-30T01:41:07.532Z,9.60
2022-09-30T01:43:53.608Z,9.50
2022-09-30T01:46:29.870Z,9.50
2022-09-30T01:49:20.453Z,9.70
2022-09-30T01:52:06.041Z,9.50
2022-09-30T01:54:51.077Z,9.50
2022-09-30T01:57:36.541Z,9.50
2022-09-30T02:00:08.010Z,9.50
2022-09-30T02:02:49.165Z,9.60
2022-09-30T02:05:33.803Z,9.10
2022-09-30T02:08:18.079Z,9.50
2022-09-30T02:10:53.217Z,9.30
2022-09-30T02:13:37.289Z,9.60
2022-09-30T02:16:15.490Z,9.50
2022-09-30T02:18:48.442Z,9.50
2022-09-30T02:21:22.340Z,8.80
2022-09-30T02:23:57.399Z,9.30
2022-09-30T02:26:29.251Z,9.00
2022-09-30T02:29:17.248Z,9.50
2022-09-30T02:31:48.455Z,9.50
2022-09-30T02:34:30.753Z,9.60
2022-09-30T02:37:09.226Z,9.30
2022-09-30T02:39:54.157Z,9.30
2022-09-30T02:42:28.793Z,9.30
2022-09-30T02:45:02.719Z,9.40
2022-09-30T02:48:04.107Z,8.60
2022-09-30T02:50:57.461Z,9.30
2022-09-30T02:53:38.321Z,9.20
2022-09-30T02:56:26.757Z,9.30
2022-09-30T02:58:57.127Z,9.20
2022-09-30T03:01:25.379Z,9.20
2022-09-30T03:04:02.747Z,9.30
2022-09-30T03:06:30.140Z,9.20
2022-09-30T03:08:57.469Z,9.10
2022-09-30T03:11:26.997Z,9.20
2022-09-30T03:14:53.131Z,9.40
2022-09-30T03:17:53.912Z,9.20
2022-09-30T03:20:46.740Z,9.30
2022-09-30T03:23:46.200Z,9.10
2022-09-30T03:26:28.195Z,9.20
2022-09-30T03:29:04.009Z,9.30
2022-09-30T03:31:39.954Z,9.20
2022-09-30T03:34:37.777Z,9.10
2022-09-30T03:37:26.203Z,9.10
2022-09-30T03:40:41.839Z,8.80
2022-09-30T03:43:29.002Z,9.00
2022-09-30T03:46:21.344Z,9.00
2022-09-30T03:48:53.966Z,9.00
2022-09-30T03:51:24.901Z,9.00
2022-09-30T03:53:53.384Z,9.00
2022-09-30T03:56:29.588Z,9.00
2022-09-30T03:58:57.841Z,9.00
2022-09-30T04:01:25.350Z,8.90
2022-09-30T04:03:53.780Z,8.20
2022-09-30T04:06:24.073Z,8.80
2022-09-30T04:08:51.522Z,9.10
2022-09-30T04:11:18.459Z,8.90
2022-09-30T04:13:45.474Z,9.10
2022-09-30T04:16:12.574Z,9.00
2022-09-30T04:18:39.817Z,8.90
2022-09-30T04:21:09.115Z,8.90
2022-09-30T04:23:38.468Z,8.80
2022-09-30T04:26:08.141Z,8.80
2022-09-30T04:28:35.437Z,8.90
2022-09-30T04:31:04.904Z,8.90
2022-09-30T04:33:32.776Z,8.90
2022-09-30T04:36:00.878Z,9.00
2022-09-30T04:38:29.439Z,8.10
2022-09-30T04:40:56.533Z,8.70
2022-09-30T04:43:25.840Z,8.60
2022-09-30T04:45:53.623Z,8.90
2022-09-30T04:48:22.578Z,8.80
2022-09-30T04:50:50.886Z,8.70
2022-09-30T04:53:18.689Z,7.80
2022-09-30T04:55:46.490Z,8.80
2022-09-30T04:58:13.986Z,8.80
2022-09-30T05:00:41.629Z,8.60
2022-09-30T05:03:08.670Z,8.80
2022-09-30T05:05:35.631Z,8.80
2022-09-30T05:08:04.403Z,8.80
2022-09-30T05:10:31.825Z,8.80
2022-09-30T05:12:58.873Z,8.70
2022-09-30T05:15:29.182Z,8.70
2022-09-30T05:17:56.297Z,8.80
2022-09-30T05:20:23.334Z,8.90
2022-09-30T05:22:56.863Z,8.70
2022-09-30T05:25:23.843Z,8.80
2022-09-30T05:27:51.390Z,8.70
2022-09-30T05:30:18.495Z,8.90
2022-09-30T05:32:46.348Z,8.70
2022-09-30T05:35:13.455Z,8.50
2022-09-30T05:37:40.804Z,8.60
2022-09-30T05:40:10.933Z,8.70
2022-09-30T05:42:40.442Z,8.70
2022-09-30T05:45:08.107Z,8.80
2022-09-30T05:47:35.695Z,8.80
2022-09-30T05:50:02.771Z,9.50
2022-09-30T05:52:29.787Z,7.70
2022-09-30T05:54:59.149Z,8.70
2022-09-30T05:57:30.119Z,8.70
2022-09-30T05:59:58.054Z,8.80
2022-09-30T06:02:25.548Z,8.40
2022-09-30T06:04:52.740Z,8.60
2022-09-30T06:07:19.689Z,8.50
2022-09-30T06:09:47.361Z,8.50
2022-09-30T06:12:15.430Z,8.50
2022-09-30T06:14:42.452Z,8.50
2022-09-30T06:17:09.685Z,8.50
2022-09-30T06:19:36.806Z,8.50
2022-09-30T06:22:04.026Z,8.60
2022-09-30T06:24:31.425Z,8.50
2022-09-30T06:26:58.666Z,8.50
2022-09-30T06:29:25.633Z,8.60
2022-09-30T06:31:52.703Z,8.50
2022-09-30T06:34:20.241Z,7.10
2022-09-30T06:36:47.309Z,8.60
2022-09-30T06:39:14.350Z,8.40
2022-09-30T06:41:43.580Z,8.50
2022-09-30T06:44:13.485Z,8.60
2022-09-30T06:46:52.170Z,9.20
2022-09-30T06:49:21.061Z,8.50
2022-09-30T06:51:51.701Z,8.50
2022-09-30T06:54:21.045Z,8.50
2022-09-30T06:56:49.058Z,8.60
2022-09-30T06:59:17.186Z,8.70
2022-09-30T07:01:45.226Z,8.50
2022-09-30T07:04:12.508Z,8.50
2022-09-30T07:06:40.018Z,8.60
2022-09-30T07:09:08.206Z,8.60
2022-09-30T07:11:37.311Z,8.60
2022-09-30T07:14:08.741Z,8.50
2022-09-30T07:16:36.121Z,8.70
2022-09-30T07:19:05.316Z,8.60
2022-09-30T07:21:32.377Z,8.50
2022-09-30T07:24:00.308Z,8.50
2022-09-30T07:26:28.371Z,8.50
2022-09-30T07:28:55.429Z,8.50
2022-09-30T07:31:32.888Z,8.70
2022-09-30T07:34:01.553Z,8.40
2022-09-30T07:36:33.062Z,8.50
2022-09-30T07:39:06.932Z,8.40
2022-09-30T07:41:38.808Z,8.60
2022-09-30T07:44:09.495Z,8.70
2022-09-30T07:46:39.964Z,8.40
2022-09-30T07:49:15.029Z,8.50
2022-09-30T07:51:45.905Z,8.40
2022-09-30T07:54:17.305Z,8.40
2022-09-30T07:57:08.761Z,8.70
2022-09-30T07:59:37.727Z,8.60
2022-09-30T08:02:07.161Z,8.70
2022-09-30T08:04:35.065Z,8.60
2022-09-30T08:07:03.471Z,8.60
2022-09-30T08:09:31.629Z,8.60
2022-09-30T08:11:59.316Z,8.80
2022-09-30T08:14:28.536Z,8.70
2022-09-30T08:16:57.045Z,8.70
2022-09-30T08:19:26.215Z,8.70
2022-09-30T08:21:54.279Z,8.70
2022-09-30T08:24:23.139Z,8.70
2022-09-30T08:26:50.588Z,8.70
2022-09-30T08:29:20.424Z,8.60
2022-09-30T08:31:52.849Z,8.60
2022-09-30T08:34:20.058Z,8.50
2022-09-30T08:36:47.182Z,8.70
2022-09-30T08:39:14.289Z,8.70
2022-09-30T08:42:36.134Z,8.80
2022-09-30T08:45:31.798Z,8.70
2022-09-30T08:48:13.771Z,8.70
2022-09-30T08:51:08.122Z,8.60
2022-09-30T08:53:42.844Z,9.70
2022-09-30T08:56:20.959Z,8.80
2022-09-30T08:58:51.228Z,8.70
2022-09-30T09:01:43.920Z,8.60
2022-09-30T09:04:11.046Z,8.80
2022-09-30T09:07:13.215Z,9.40
2022-09-30T09:10:18.138Z,9.00
2022-09-30T09:12:56.635Z,8.90
2022-09-30T09:16:02.761Z,8.90
2022-09-30T09:18:42.083Z,7.50
2022-09-30T09:21:45.705Z,8.90
2022-09-30T09:24:24.573Z,8.90
2022-09-30T09:26:57.560Z,9.00
2022-09-30T09:29:38.800Z,9.00
2022-09-30T09:32:18.398Z,8.90
2022-09-30T09:34:51.637Z,8.90
2022-09-30T09:37:52.826Z,9.10
2022-09-30T09:40:59.227Z,9.30
2022-09-30T09:43:48.337Z,9.40
2022-09-30T09:46:25.695Z,9.30
2022-09-30T09:49:23.457Z,8.50
2022-09-30T09:51:59.105Z,9.40
2022-09-30T09:54:28.600Z,9.70
2022-09-30T09:56:55.754Z,9.40
2022-09-30T09:59:23.049Z,9.40
2022-09-30T10:01:54.434Z,9.40
2022-09-30T10:04:27.358Z,9.70
2022-09-30T10:06:57.760Z,9.50
2022-09-30T10:09:36.161Z,9.80
2022-09-30T10:12:06.050Z,9.50
2022-09-30T10:14:34.257Z,9.40
2022-09-30T10:17:04.862Z,9.50
2022-09-30T10:19:34.720Z,9.40
2022-09-30T10:22:11.887Z,9.50
2022-09-30T10:24:40.254Z,9.80
2022-09-30T10:27:34.305Z,10.00
2022-09-30T10:30:01.426Z,10.50
2022-09-30T10:32:29.522Z,10.40
2022-09-30T10:35:18.073Z,10.50
2022-09-30T10:37:56.526Z,10.20
2022-09-30T10:40:29.053Z,10.40
2022-09-30T10:42:56.827Z,10.40
2022-09-30T10:45:36.687Z,11.00
2022-09-30T10:48:17.484Z,10.80
2022-09-30T10:50:53.440Z,10.60
2022-09-30T10:53:30.174Z,10.70
2022-09-30T10:55:57.732Z,10.80
2022-09-30T10:58:39.026Z,10.70
2022-09-30T11:01:23.020Z,10.50
2022-09-30T11:04:07.511Z,10.60
2022-09-30T11:06:40.049Z,11.00
2022-09-30T11:09:21.003Z,11.10
2022-09-30T11:11:57.797Z,11.90
2022-09-30T11:14:39.909Z,11.40
2022-09-30T11:17:26.285Z,11.50
2022-09-30T11:20:35.367Z,11.50
2022-09-30T11:23:16.342Z,12.30
2022-09-30T11:26:33.540Z,13.30
2022-09-30T11:29:33.367Z,14.30
2022-09-30T11:32:23.256Z,15.10
2022-09-30T11:35:28.317Z,15.70
2022-09-30T11:38:32.427Z,14.30
2022-09-30T11:41:28.449Z,13.50
2022-09-30T11:44:23.425Z,12.20
2022-09-30T11:47:13.910Z,14.60
2022-09-30T11:50:26.972Z,15.00
2022-09-30T11:53:41.512Z,16.20
2022-09-30T11:56:42.465Z,15.10
2022-09-30T11:59:36.303Z,14.80
2022-09-30T12:02:26.810Z,15.00
2022-09-30T12:05:00.516Z,16.10
2022-09-30T12:07:43.902Z,17.40
2022-09-30T12:10:26.616Z,16.90
2022-09-30T12:13:00.565Z,17.00
2022-09-30T12:15:28.584Z,16.80
2022-09-30T12:18:04.291Z,17.60
2022-09-30T12:20:52.956Z,17.60
2022-09-30T12:23:39.828Z,18.00
2022-09-30T12:26:07.309Z,16.70
2022-09-30T12:29:37.172Z,16.60
2022-09-30T12:33:12.827Z,17.10
2022-09-30T12:36:08.807Z,17.10
2022-09-30T12:38:51.474Z,16.90
2022-09-30T12:42:01.381Z,17.10
2022-09-30T12:45:23.673Z,17.30
2022-09-30T12:48:20.625Z,17.40
2022-09-30T12:50:53.056Z,17.90
2022-09-30T12:53:33.025Z,16.50
2022-09-30T12:56:19.009Z,17.30
2022-09-30T12:58:50.774Z,18.40
2022-09-30T13:01:22.516Z,15.70
2022-09-30T13:04:15.583Z,16.00
2022-09-30T13:06:45.487Z,16.30
2022-09-30T13:09:22.468Z,16.40
2022-09-30T13:12:17.438Z,16.70
2022-09-30T13:14:44.489Z,16.80
2022-09-30T13:17:11.676Z,16.80
2022-09-30T13:19:45.017Z,17.20
2022-09-30T13:22:21.075Z,19.80
2022-09-30T13:25:06.681Z,16.30
2022-09-30T13:27:37.007Z,16.80
2022-09-30T13:30:32.244Z,17.60
2022-09-30T13:33:02.309Z,18.50
2022-09-30T13:35:49.758Z,18.50
2022-09-30T13:38:24.450Z,18.80
2022-09-30T13:41:02.654Z,19.70
2022-09-30T13:44:11.806Z,19.50
2022-09-30T13:47:00.664Z,19.40
2022-09-30T13:50:07.631Z,19.00
2022-09-30T13:52:38.216Z,19.10
2022-09-30T13:55:27.224Z,18.90
2022-09-30T13:58:54.864Z,18.70
2022-09-30T14:04:43.182Z,17.70
2022-09-30T14:07:26.343Z,17.70
2022-09-30T14:10:15.858Z,17.90
2022-09-30T14:13:01.273Z,17.50
2022-09-30T14:19:02.680Z,17.00
2022-09-30T14:21:36.812Z,17.30
2022-09-30T14:24:26.433Z,17.10
2022-09-30T14:27:54.599Z,17.00
2022-09-30T14:32:58.190Z,17.40
2022-09-30T14:35:31.319Z,17.30
2022-09-30T14:38:20.009Z,17.00
2022-09-30T14:40:56.973Z,17.20
2022-09-30T14:43:37.799Z,17.00
2022-09-30T14:46:26.765Z,18.40
2022-09-30T14:48:56.204Z,17.10
2022-09-30T14:54:02.790Z,17.00
2022-09-30T14:56:33.948Z,16.90
2022-09-30T14:59:17.639Z,16.70
2022-09-30T15:04:31.885Z,16.60
2022-09-30T15:07:03.387Z,16.40
2022-09-30T15:09:36.155Z,16.50
2022-09-30T15:12:19.465Z,16.70
2022-09-30T15:14:49.674Z,16.60
2022-09-30T15:17:36.318Z,16.50
2022-09-30T15:20:35.408Z,16.40
2022-09-30T15:23:15.054Z,15.70
2022-09-30T15:25:42.237Z,15.80
2022-09-30T15:28:12.859Z,16.50
2022-09-30T15:30:43.128Z,16.50
2022-09-30T15:35:46.461Z,16.30
2022-09-30T15:38:20.787Z,16.20
2022-09-30T15:40:57.099Z,16.20
2022-09-30T15:43:39.242Z,16.10
2022-09-30T15:46:38.852Z,15.70
2022-09-30T15:49:17.248Z,15.40
2022-09-30T15:51:46.133Z,14.90
2022-09-30T15:56:54.834Z,15.10
2022-09-30T15:59:22.609Z,15.30
2022-09-30T16:01:51.558Z,15.30
2022-09-30T16:04:24.606Z,15.20
2022-09-30T16:06:55.738Z,15.30
2022-09-30T16:09:34.008Z,15.30
2022-09-30T16:12:12.998Z,15.40
2022-09-30T16:15:01.341Z,15.30
2022-09-30T16:17:35.590Z,16.40
2022-09-30T16:20:13.871Z,15.10
2022-09-30T16:22:40.747Z,15.30
2022-09-30T16:25:21.118Z,15.40
2022-09-30T16:28:00.738Z,15.50
2022-09-30T16:30:29.309Z,15.40
2022-09-30T16:33:00.335Z,15.30
2022-09-30T16:35:29.124Z,15.20
2022-09-30T16:38:03.258Z,14.00
2022-09-30T16:40:32.120Z,14.80
2022-09-30T16:42:59.325Z,13.80
2022-09-30T16:45:28.493Z,15.10
2022-09-30T16:47:59.116Z,14.90
2022-09-30T16:50:42.123Z,13.70
2022-09-30T16:53:12.058Z,13.80
2022-09-30T16:55:39.156Z,14.50
2022-09-30T16:58:06.577Z,14.70
2022-09-30T17:00:34.261Z,14.60
2022-09-30T17:03:01.176Z,14.70
2022-09-30T17:05:28.098Z,15.50
2022-09-30T17:07:58.867Z,14.70
2022-09-30T17:10:31.893Z,13.70
2022-09-30T17:13:00.664Z,14.80
2022-09-30T17:15:30.340Z,14.50
2022-09-30T17:17:58.476Z,15.60
2022-09-30T17:20:26.821Z,14.40
2022-09-30T17:22:54.036Z,14.30
2022-09-30T17:25:21.277Z,14.10
2022-09-30T17:27:50.076Z,14.10
2022-09-30T17:30:19.037Z,13.40
2022-09-30T17:32:46.697Z,14.80
2022-09-30T17:35:14.467Z,13.70
2022-09-30T17:37:45.383Z,13.40
2022-09-30T17:40:32.861Z,14.10
2022-09-30T17:43:12.297Z,14.20
2022-09-30T17:45:46.166Z,14.00
2022-09-30T17:48:16.201Z,13.80
2022-09-30T17:50:47.239Z,13.90
2022-09-30T17:53:19.308Z,13.90
2022-09-30T17:55:47.997Z,13.50
2022-09-30T17:58:16.942Z,13.70
2022-09-30T18:00:44.245Z,14.80
2022-09-30T18:03:12.110Z,13.70
2022-09-30T18:05:39.128Z,13.70
2022-09-30T18:08:06.164Z,13.30
2022-09-30T18:10:37.529Z,13.70
2022-09-30T18:13:05.098Z,13.60
2022-09-30T18:15:32.617Z,13.50
2022-09-30T18:17:59.609Z,13.20
2022-09-30T18:20:26.504Z,13.50
2022-09-30T18:22:53.652Z,13.70
2022-09-30T18:25:20.558Z,13.40
2022-09-30T18:27:53.642Z,13.10
2022-09-30T18:30:21.607Z,12.70
2022-09-30T18:32:51.253Z,13.40
2022-09-30T18:35:20.962Z,13.40
2022-09-30T18:37:51.970Z,13.40
2022-09-30T18:40:27.775Z,13.30
2022-09-30T18:43:02.671Z,13.30
2022-09-30T18:45:33.087Z,13.30
2022-09-30T18:48:03.794Z,13.20
2022-09-30T18:50:32.636Z,14.60
2022-09-30T18:53:04.605Z,13.80
2022-09-30T18:55:35.027Z,13.30
2022-09-30T18:58:01.929Z,13.50
2022-09-30T19:00:30.448Z,13.80
2022-09-30T19:02:57.709Z,13.30
2022-09-30T19:05:24.951Z,13.30
2022-09-30T19:07:53.538Z,12.90
2022-09-30T19:10:21.343Z,13.20
2022-09-30T19:12:49.609Z,13.20
2022-09-30T19:15:16.865Z,13.20
2022-09-30T19:17:44.961Z,13.10
2022-09-30T19:20:15.116Z,13.00
2022-09-30T19:22:42.197Z,13.00
2022-09-30T19:25:11.751Z,13.10
2022-09-30T19:27:41.189Z,12.80
2022-09-30T19:30:13.891Z,12.90
2022-09-30T19:32:41.217Z,12.90
2022-09-30T19:35:11.686Z,12.80
2022-09-30T19:37:43.515Z,13.00
2022-09-30T19:40:21.030Z,12.80
2022-09-30T19:42:49.515Z,12.70
2022-09-30T19:45:19.138Z,12.80
2022-09-30T19:47:48.240Z,12.60
2022-09-30T19:50:15.216Z,12.20
2022-09-30T19:52:54.751Z,12.60
2022-09-30T19:55:23.514Z,12.50
2022-09-30T19:57:50.442Z,12.50
2022-09-30T20:00:17.533Z,12.50
2022-09-30T20:02:44.537Z,12.60
2022-09-30T20:05:11.535Z,12.50
2022-09-30T20:07:38.495Z,12.50
2022-09-30T20:10:06.410Z,12.40
2022-09-30T20:12:33.313Z,12.50
2022-09-30T20:15:18.497Z,12.50
2022-09-30T20:17:45.470Z,12.40
2022-09-30T20:20:31.025Z,12.80
2022-09-30T20:23:00.922Z,12.40
2022-09-30T20:25:29.894Z,12.60
2022-09-30T20:27:56.871Z,11.10
2022-09-30T20:30:24.980Z,12.40
2022-09-30T20:32:53.026Z,12.40
2022-09-30T20:35:21.249Z,12.30
2022-09-30T20:37:48.253Z,12.30
2022-09-30T20:40:15.530Z,12.40
2022-09-30T20:42:43.175Z,12.30
2022-09-30T20:45:10.837Z,12.20
2022-09-30T20:47:40.082Z,12.20
2022-09-30T20:50:08.177Z,12.20
2022-09-30T20:52:35.306Z,12.20
2022-09-30T20:55:02.318Z,12.20
2022-09-30T20:57:30.172Z,13.30
2022-09-30T21:00:01.724Z,12.70
2022-09-30T21:02:29.438Z,12.00
2022-09-30T21:04:58.145Z,12.20
2022-09-30T21:07:26.501Z,12.10
2022-09-30T21:09:53.446Z,12.20
2022-09-30T21:12:20.421Z,11.90
2022-09-30T21:14:47.602Z,11.80
2022-09-30T21:17:14.614Z,12.00
2022-09-30T21:19:41.531Z,11.80
2022-09-30T21:22:08.538Z,11.80
2022-09-30T21:24:35.462Z,11.90
2022-09-30T21:27:05.728Z,11.90
2022-09-30T21:29:32.818Z,12.00
2022-09-30T21:32:00.030Z,11.40
2022-09-30T21:34:27.043Z,11.90
2022-09-30T21:36:54.001Z,11.90
2022-09-30T21:39:20.979Z,11.80
2022-09-30T21:41:50.771Z,11.80
2022-09-30T21:44:17.837Z,11.80
2022-09-30T21:49:22.972Z,11.60
2022-09-30T21:51:51.545Z,11.80
2022-09-30T21:54:19.204Z,11.80
2022-09-30T21:56:46.396Z,11.60
2022-09-30T21:59:13.416Z,11.60
2022-09-30T22:01:41.119Z,11.70
2022-09-30T22:04:08.574Z,11.70
2022-09-30T22:06:35.549Z,11.60
2022-09-30T22:09:02.969Z,11.60
2022-09-30T22:11:31.401Z,11.40
2022-09-30T22:14:00.894Z,10.60
2022-09-30T22:16:35.231Z,12.10
2022-09-30T22:19:07.248Z,12.00
2022-09-30T22:24:06.278Z,11.20
2022-09-30T22:26:33.854Z,11.50
2022-09-30T22:29:07.435Z,11.50
2022-09-30T22:31:35.049Z,12.50
2022-09-30T22:34:24.414Z,11.30
2022-09-30T22:37:10.399Z,11.40
2022-09-30T22:39:37.630Z,11.50
2022-09-30T22:42:04.604Z,11.40
2022-09-30T22:47:04.502Z,11.50
2022-09-30T22:49:34.601Z,11.40
2022-09-30T22:52:04.523Z,11.20
2022-09-30T22:54:31.656Z,11.90
2022-09-30T22:57:01.125Z,11.10
2022-09-30T22:59:29.158Z,11.40
2022-09-30T23:01:57.496Z,12.40
2022-09-30T23:04:26.704Z,11.20
2022-09-30T23:06:58.361Z,11.20
2022-09-30T23:09:25.486Z,11.30
2022-09-30T23:11:54.815Z,11.20
2022-09-30T23:14:22.650Z,11.30
2022-09-30T23:16:50.433Z,10.40
2022-09-30T23:19:18.007Z,11.20
2022-09-30T23:21:44.987Z,11.20
2022-09-30T23:24:12.403Z,11.00
2022-09-30T23:26:39.747Z,12.00
2022-09-30T23:29:12.790Z,11.00
2022-09-30T23:31:40.877Z,11.10
2022-09-30T23:34:07.869Z,10.20
2022-09-30T23:36:37.070Z,10.90
2022-09-30T23:39:20.846Z,10.20
2022-09-30T23:41:49.763Z,10.80
2022-09-30T23:44:18.661Z,10.90
2022-09-30T23:47:05.394Z,11.00
2022-09-30T23:49:35.329Z,10.60
2022-09-30T23:52:11.846Z,11.00
2022-09-30T23:54:41.234Z,10.90
2022-09-30T23:57:08.635Z,10.90
2022-09-30T23:59:39.302Z,11.50
